<?xml version="1.0" encoding="UTF-8" standalone="no" ?>
<gpx xmlns="http://www.topografix.com/GPX/1/1" xmlns:xsi="http://www.w3.org/2001/XMLSchema-instance" xsi:schemaLocation="http://www.topografix.com/GPX/1/1 http://www.topografix.com/GPX/1/1/gpx.xsd" version="1.1" creator="VisuGPX - https://www.visugpx.com">
  <metadata>
    <name>Rando Y2S - Lantosque-Flaut via La Bollène</name>
    <desc><![CDATA[Rando club de Yoga Y2S - Lantosque - Flaut via La Bollène]]></desc>
  </metadata>
  <trk>
    <name><![CDATA[Rando Y2S]]></name>
    <desc><![CDATA[à multiplier par 2 : A-R Lantosque - Flaut via La Bollène]]></desc>
    <trkseg>
      <trkpt lat="43.9749" lon="7.31213">
        <ele>471.79998779297</ele>
        <time>2014-05-17T07:40:35.000Z</time>
      </trkpt>
      <trkpt lat="43.97485" lon="7.31219">
        <ele>473</ele>
        <time>2014-05-17T07:40:40.000Z</time>
      </trkpt>
      <trkpt lat="43.97482" lon="7.31222">
        <ele>473.79998779297</ele>
        <time>2014-05-17T07:40:44.000Z</time>
      </trkpt>
      <trkpt lat="43.97477" lon="7.31226">
        <ele>474.79998779297</ele>
        <time>2014-05-17T07:40:48.000Z</time>
      </trkpt>
      <trkpt lat="43.97463" lon="7.31243">
        <ele>478.20001220703</ele>
        <time>2014-05-17T07:41:02.000Z</time>
      </trkpt>
      <trkpt lat="43.97448" lon="7.31258">
        <ele>478.60000610352</ele>
        <time>2014-05-17T07:41:13.000Z</time>
      </trkpt>
      <trkpt lat="43.97445" lon="7.3126">
        <ele>479.20001220703</ele>
        <time>2014-05-17T07:41:15.000Z</time>
      </trkpt>
      <trkpt lat="43.97438" lon="7.31284">
        <ele>477.39999389648</ele>
        <time>2014-05-17T07:41:33.000Z</time>
      </trkpt>
      <trkpt lat="43.97437" lon="7.3129">
        <ele>476.79998779297</ele>
        <time>2014-05-17T07:41:36.000Z</time>
      </trkpt>
      <trkpt lat="43.97435" lon="7.31301">
        <ele>475.79998779297</ele>
        <time>2014-05-17T07:41:42.000Z</time>
      </trkpt>
      <trkpt lat="43.97423" lon="7.31321">
        <ele>477.60000610352</ele>
        <time>2014-05-17T07:42:02.000Z</time>
      </trkpt>
      <trkpt lat="43.97413" lon="7.31342">
        <ele>483.20001220703</ele>
        <time>2014-05-17T07:42:21.000Z</time>
      </trkpt>
      <trkpt lat="43.97406" lon="7.31365">
        <ele>483.79998779297</ele>
        <time>2014-05-17T07:42:38.000Z</time>
      </trkpt>
      <trkpt lat="43.97396" lon="7.31387">
        <ele>484.60000610352</ele>
        <time>2014-05-17T07:42:54.000Z</time>
      </trkpt>
      <trkpt lat="43.97394" lon="7.3139">
        <ele>484.60000610352</ele>
        <time>2014-05-17T07:42:56.000Z</time>
      </trkpt>
      <trkpt lat="43.9739" lon="7.31398">
        <ele>484.60000610352</ele>
        <time>2014-05-17T07:43:04.000Z</time>
      </trkpt>
      <trkpt lat="43.97385" lon="7.31403">
        <ele>485.60000610352</ele>
        <time>2014-05-17T07:43:09.000Z</time>
      </trkpt>
      <trkpt lat="43.97381" lon="7.31406">
        <ele>486.39999389648</ele>
        <time>2014-05-17T07:43:13.000Z</time>
      </trkpt>
      <trkpt lat="43.97372" lon="7.31414">
        <ele>488.60000610352</ele>
        <time>2014-05-17T07:43:24.000Z</time>
      </trkpt>
      <trkpt lat="43.97373" lon="7.31419">
        <ele>490</ele>
        <time>2014-05-17T07:43:29.000Z</time>
      </trkpt>
      <trkpt lat="43.9739" lon="7.31426">
        <ele>486.20001220703</ele>
        <time>2014-05-17T07:43:50.000Z</time>
      </trkpt>
      <trkpt lat="43.97406" lon="7.31422">
        <ele>478.39999389648</ele>
        <time>2014-05-17T07:44:08.000Z</time>
      </trkpt>
      <trkpt lat="43.9741" lon="7.31425">
        <ele>478</ele>
        <time>2014-05-17T07:44:13.000Z</time>
      </trkpt>
      <trkpt lat="43.9741" lon="7.31425">
        <ele>478</ele>
        <time>2014-05-17T07:44:14.000Z</time>
      </trkpt>
      <trkpt lat="43.97413" lon="7.3143">
        <ele>478.60000610352</ele>
        <time>2014-05-17T07:44:25.000Z</time>
      </trkpt>
      <trkpt lat="43.97429" lon="7.31442">
        <ele>476.60000610352</ele>
        <time>2014-05-17T07:44:50.000Z</time>
      </trkpt>
      <trkpt lat="43.97446" lon="7.31452">
        <ele>473.79998779297</ele>
        <time>2014-05-17T07:45:12.000Z</time>
      </trkpt>
      <trkpt lat="43.97462" lon="7.31466">
        <ele>473</ele>
        <time>2014-05-17T07:45:29.000Z</time>
      </trkpt>
      <trkpt lat="43.97479" lon="7.31467">
        <ele>467.39999389648</ele>
        <time>2014-05-17T07:45:49.000Z</time>
      </trkpt>
      <trkpt lat="43.97493" lon="7.31475">
        <ele>465.39999389648</ele>
        <time>2014-05-17T07:46:10.000Z</time>
      </trkpt>
      <trkpt lat="43.9751" lon="7.31486">
        <ele>463.39999389648</ele>
        <time>2014-05-17T07:46:32.000Z</time>
      </trkpt>
      <trkpt lat="43.97528" lon="7.31496">
        <ele>461.39999389648</ele>
        <time>2014-05-17T07:46:57.000Z</time>
      </trkpt>
      <trkpt lat="43.97532" lon="7.31502">
        <ele>461.79998779297</ele>
        <time>2014-05-17T07:47:13.000Z</time>
      </trkpt>
      <trkpt lat="43.97529" lon="7.31528">
        <ele>466.79998779297</ele>
        <time>2014-05-17T07:47:41.000Z</time>
      </trkpt>
      <trkpt lat="43.97525" lon="7.31552">
        <ele>472</ele>
        <time>2014-05-17T07:48:14.000Z</time>
      </trkpt>
      <trkpt lat="43.97531" lon="7.31576">
        <ele>475</ele>
        <time>2014-05-17T07:48:41.000Z</time>
      </trkpt>
      <trkpt lat="43.97537" lon="7.31585">
        <ele>477</ele>
        <time>2014-05-17T07:49:03.000Z</time>
      </trkpt>
      <trkpt lat="43.97549" lon="7.31606">
        <ele>483</ele>
        <time>2014-05-17T07:49:26.000Z</time>
      </trkpt>
      <trkpt lat="43.97556" lon="7.31629">
        <ele>488.60000610352</ele>
        <time>2014-05-17T07:49:52.000Z</time>
      </trkpt>
      <trkpt lat="43.97568" lon="7.31642">
        <ele>491.79998779297</ele>
        <time>2014-05-17T07:50:16.000Z</time>
      </trkpt>
      <trkpt lat="43.97584" lon="7.31654">
        <ele>494.39999389648</ele>
        <time>2014-05-17T07:50:45.000Z</time>
      </trkpt>
      <trkpt lat="43.97595" lon="7.31663">
        <ele>496.20001220703</ele>
        <time>2014-05-17T07:51:01.000Z</time>
      </trkpt>
      <trkpt lat="43.9761" lon="7.31675">
        <ele>499.79998779297</ele>
        <time>2014-05-17T07:51:29.000Z</time>
      </trkpt>
      <trkpt lat="43.97626" lon="7.31685">
        <ele>501.60000610352</ele>
        <time>2014-05-17T07:51:49.000Z</time>
      </trkpt>
      <trkpt lat="43.97641" lon="7.31698">
        <ele>504.60000610352</ele>
        <time>2014-05-17T07:52:14.000Z</time>
      </trkpt>
      <trkpt lat="43.97654" lon="7.31716">
        <ele>509.20001220703</ele>
        <time>2014-05-17T07:52:43.000Z</time>
      </trkpt>
      <trkpt lat="43.97668" lon="7.31731">
        <ele>513</ele>
        <time>2014-05-17T07:53:09.000Z</time>
      </trkpt>
      <trkpt lat="43.97684" lon="7.31741">
        <ele>514.59997558594</ele>
        <time>2014-05-17T07:53:34.000Z</time>
      </trkpt>
      <trkpt lat="43.97699" lon="7.31756">
        <ele>517</ele>
        <time>2014-05-17T07:53:54.000Z</time>
      </trkpt>
      <trkpt lat="43.97712" lon="7.31773">
        <ele>519.40002441406</ele>
        <time>2014-05-17T07:54:16.000Z</time>
      </trkpt>
      <trkpt lat="43.97726" lon="7.31789">
        <ele>521.59997558594</ele>
        <time>2014-05-17T07:54:37.000Z</time>
      </trkpt>
      <trkpt lat="43.97741" lon="7.31803">
        <ele>522.40002441406</ele>
        <time>2014-05-17T07:54:56.000Z</time>
      </trkpt>
      <trkpt lat="43.97757" lon="7.31817">
        <ele>523.20001220703</ele>
        <time>2014-05-17T07:55:16.000Z</time>
      </trkpt>
      <trkpt lat="43.97774" lon="7.31827">
        <ele>522.20001220703</ele>
        <time>2014-05-17T07:55:33.000Z</time>
      </trkpt>
      <trkpt lat="43.9779" lon="7.31836">
        <ele>521</ele>
        <time>2014-05-17T07:55:50.000Z</time>
      </trkpt>
      <trkpt lat="43.97806" lon="7.3185">
        <ele>521</ele>
        <time>2014-05-17T07:56:08.000Z</time>
      </trkpt>
      <trkpt lat="43.97821" lon="7.31863">
        <ele>521</ele>
        <time>2014-05-17T07:56:25.000Z</time>
      </trkpt>
      <trkpt lat="43.97835" lon="7.3188">
        <ele>522.20001220703</ele>
        <time>2014-05-17T07:56:44.000Z</time>
      </trkpt>
      <trkpt lat="43.97851" lon="7.31893">
        <ele>522</ele>
        <time>2014-05-17T07:57:03.000Z</time>
      </trkpt>
      <trkpt lat="43.97868" lon="7.31899">
        <ele>521.20001220703</ele>
        <time>2014-05-17T07:57:23.000Z</time>
      </trkpt>
      <trkpt lat="43.97882" lon="7.31888">
        <ele>516.79998779297</ele>
        <time>2014-05-17T07:57:41.000Z</time>
      </trkpt>
      <trkpt lat="43.97892" lon="7.31867">
        <ele>510.20001220703</ele>
        <time>2014-05-17T07:58:00.000Z</time>
      </trkpt>
      <trkpt lat="43.97895" lon="7.31861">
        <ele>508.60000610352</ele>
        <time>2014-05-17T07:58:04.000Z</time>
      </trkpt>
      <trkpt lat="43.97907" lon="7.31845">
        <ele>504.79998779297</ele>
        <time>2014-05-17T07:58:23.000Z</time>
      </trkpt>
      <trkpt lat="43.97926" lon="7.31842">
        <ele>503.79998779297</ele>
        <time>2014-05-17T07:58:40.000Z</time>
      </trkpt>
      <trkpt lat="43.97945" lon="7.3184">
        <ele>502.79998779297</ele>
        <time>2014-05-17T07:58:58.000Z</time>
      </trkpt>
      <trkpt lat="43.97964" lon="7.31838">
        <ele>502</ele>
        <time>2014-05-17T07:59:16.000Z</time>
      </trkpt>
      <trkpt lat="43.97981" lon="7.31846">
        <ele>503</ele>
        <time>2014-05-17T07:59:35.000Z</time>
      </trkpt>
      <trkpt lat="43.97986" lon="7.31871">
        <ele>508.20001220703</ele>
        <time>2014-05-17T07:59:50.000Z</time>
      </trkpt>
      <trkpt lat="43.97991" lon="7.31896">
        <ele>513.40002441406</ele>
        <time>2014-05-17T08:00:09.000Z</time>
      </trkpt>
      <trkpt lat="43.98" lon="7.31916">
        <ele>517.40002441406</ele>
        <time>2014-05-17T08:00:45.000Z</time>
      </trkpt>
      <trkpt lat="43.98015" lon="7.31902">
        <ele>513.79998779297</ele>
        <time>2014-05-17T08:01:13.000Z</time>
      </trkpt>
      <trkpt lat="43.98019" lon="7.319">
        <ele>513.20001220703</ele>
        <time>2014-05-17T08:01:18.000Z</time>
      </trkpt>
      <trkpt lat="43.98037" lon="7.31894">
        <ele>512</ele>
        <time>2014-05-17T08:01:39.000Z</time>
      </trkpt>
      <trkpt lat="43.98054" lon="7.31896">
        <ele>512.59997558594</ele>
        <time>2014-05-17T08:02:03.000Z</time>
      </trkpt>
      <trkpt lat="43.98073" lon="7.31903">
        <ele>514.20001220703</ele>
        <time>2014-05-17T08:02:25.000Z</time>
      </trkpt>
      <trkpt lat="43.9809" lon="7.3191">
        <ele>516</ele>
        <time>2014-05-17T08:02:44.000Z</time>
      </trkpt>
      <trkpt lat="43.98108" lon="7.31911">
        <ele>516.20001220703</ele>
        <time>2014-05-17T08:03:02.000Z</time>
      </trkpt>
      <trkpt lat="43.98126" lon="7.31914">
        <ele>517.40002441406</ele>
        <time>2014-05-17T08:03:22.000Z</time>
      </trkpt>
      <trkpt lat="43.98144" lon="7.31915">
        <ele>518.20001220703</ele>
        <time>2014-05-17T08:03:42.000Z</time>
      </trkpt>
      <trkpt lat="43.98162" lon="7.31918">
        <ele>519.79998779297</ele>
        <time>2014-05-17T08:04:01.000Z</time>
      </trkpt>
      <trkpt lat="43.9818" lon="7.31922">
        <ele>521.40002441406</ele>
        <time>2014-05-17T08:04:27.000Z</time>
      </trkpt>
      <trkpt lat="43.98191" lon="7.31942">
        <ele>528.20001220703</ele>
        <time>2014-05-17T08:04:50.000Z</time>
      </trkpt>
      <trkpt lat="43.98203" lon="7.31961">
        <ele>530.59997558594</ele>
        <time>2014-05-17T08:05:12.000Z</time>
      </trkpt>
      <trkpt lat="43.98216" lon="7.31979">
        <ele>532.40002441406</ele>
        <time>2014-05-17T08:05:38.000Z</time>
      </trkpt>
      <trkpt lat="43.98225" lon="7.32001">
        <ele>536.59997558594</ele>
        <time>2014-05-17T08:05:57.000Z</time>
      </trkpt>
      <trkpt lat="43.98236" lon="7.32022">
        <ele>538.79998779297</ele>
        <time>2014-05-17T08:06:17.000Z</time>
      </trkpt>
      <trkpt lat="43.98249" lon="7.32039">
        <ele>539</ele>
        <time>2014-05-17T08:06:39.000Z</time>
      </trkpt>
      <trkpt lat="43.98263" lon="7.32056">
        <ele>539</ele>
        <time>2014-05-17T08:06:54.000Z</time>
      </trkpt>
      <trkpt lat="43.98278" lon="7.32061">
        <ele>535.79998779297</ele>
        <time>2014-05-17T08:07:32.000Z</time>
      </trkpt>
      <trkpt lat="43.98295" lon="7.3207">
        <ele>533.20001220703</ele>
        <time>2014-05-17T08:07:49.000Z</time>
      </trkpt>
      <trkpt lat="43.98307" lon="7.32088">
        <ele>533.59997558594</ele>
        <time>2014-05-17T08:08:06.000Z</time>
      </trkpt>
      <trkpt lat="43.98315" lon="7.32112">
        <ele>536</ele>
        <time>2014-05-17T08:08:27.000Z</time>
      </trkpt>
      <trkpt lat="43.98319" lon="7.32136">
        <ele>541.20001220703</ele>
        <time>2014-05-17T08:08:49.000Z</time>
      </trkpt>
      <trkpt lat="43.98323" lon="7.32156">
        <ele>546.40002441406</ele>
        <time>2014-05-17T08:09:29.000Z</time>
      </trkpt>
      <trkpt lat="43.98323" lon="7.32176">
        <ele>551.59997558594</ele>
        <time>2014-05-17T08:10:26.000Z</time>
      </trkpt>
      <trkpt lat="43.9833" lon="7.32199">
        <ele>553.79998779297</ele>
        <time>2014-05-17T08:10:58.000Z</time>
      </trkpt>
      <trkpt lat="43.98333" lon="7.32208">
        <ele>553.79998779297</ele>
        <time>2014-05-17T08:11:13.000Z</time>
      </trkpt>
      <trkpt lat="43.98343" lon="7.32231">
        <ele>554.40002441406</ele>
        <time>2014-05-17T08:11:40.000Z</time>
      </trkpt>
      <trkpt lat="43.98358" lon="7.32246">
        <ele>551</ele>
        <time>2014-05-17T08:12:00.000Z</time>
      </trkpt>
      <trkpt lat="43.98365" lon="7.3227">
        <ele>552</ele>
        <time>2014-05-17T08:12:26.000Z</time>
      </trkpt>
      <trkpt lat="43.98378" lon="7.32289">
        <ele>549.59997558594</ele>
        <time>2014-05-17T08:12:44.000Z</time>
      </trkpt>
      <trkpt lat="43.98392" lon="7.32303">
        <ele>545.79998779297</ele>
        <time>2014-05-17T08:13:05.000Z</time>
      </trkpt>
      <trkpt lat="43.98396" lon="7.32326">
        <ele>548</ele>
        <time>2014-05-17T08:13:27.000Z</time>
      </trkpt>
      <trkpt lat="43.98415" lon="7.32328">
        <ele>539.79998779297</ele>
        <time>2014-05-17T08:13:46.000Z</time>
      </trkpt>
      <trkpt lat="43.98431" lon="7.32337">
        <ele>534.20001220703</ele>
        <time>2014-05-17T08:14:03.000Z</time>
      </trkpt>
      <trkpt lat="43.98439" lon="7.32349">
        <ele>532.40002441406</ele>
        <time>2014-05-17T08:14:10.000Z</time>
      </trkpt>
      <trkpt lat="43.98443" lon="7.32356">
        <ele>532.40002441406</ele>
        <time>2014-05-17T08:14:15.000Z</time>
      </trkpt>
      <trkpt lat="43.9845" lon="7.3237">
        <ele>533.79998779297</ele>
        <time>2014-05-17T08:14:24.000Z</time>
      </trkpt>
      <trkpt lat="43.98454" lon="7.32394">
        <ele>537.40002441406</ele>
        <time>2014-05-17T08:14:43.000Z</time>
      </trkpt>
      <trkpt lat="43.9846" lon="7.32418">
        <ele>540.40002441406</ele>
        <time>2014-05-17T08:15:17.000Z</time>
      </trkpt>
      <trkpt lat="43.98474" lon="7.32432">
        <ele>538.79998779297</ele>
        <time>2014-05-17T08:15:39.000Z</time>
      </trkpt>
      <trkpt lat="43.98484" lon="7.32453">
        <ele>538.40002441406</ele>
        <time>2014-05-17T08:15:58.000Z</time>
      </trkpt>
      <trkpt lat="43.98486" lon="7.32457">
        <ele>538.40002441406</ele>
        <time>2014-05-17T08:16:05.000Z</time>
      </trkpt>
      <trkpt lat="43.9849" lon="7.3246">
        <ele>537.79998779297</ele>
        <time>2014-05-17T08:16:12.000Z</time>
      </trkpt>
      <trkpt lat="43.98507" lon="7.32474">
        <ele>535.59997558594</ele>
        <time>2014-05-17T08:16:29.000Z</time>
      </trkpt>
      <trkpt lat="43.98517" lon="7.32478">
        <ele>533.79998779297</ele>
        <time>2014-05-17T08:16:37.000Z</time>
      </trkpt>
      <trkpt lat="43.98523" lon="7.32482">
        <ele>532.79998779297</ele>
        <time>2014-05-17T08:16:46.000Z</time>
      </trkpt>
      <trkpt lat="43.9853" lon="7.3249">
        <ele>533.20001220703</ele>
        <time>2014-05-17T08:16:58.000Z</time>
      </trkpt>
      <trkpt lat="43.98532" lon="7.32495">
        <ele>533.59997558594</ele>
        <time>2014-05-17T08:17:04.000Z</time>
      </trkpt>
      <trkpt lat="43.9854" lon="7.32493">
        <ele>533.20001220703</ele>
        <time>2014-05-17T08:17:16.000Z</time>
      </trkpt>
      <trkpt lat="43.98549" lon="7.32516">
        <ele>533.59997558594</ele>
        <time>2014-05-17T08:17:35.000Z</time>
      </trkpt>
      <trkpt lat="43.98557" lon="7.32538">
        <ele>534.79998779297</ele>
        <time>2014-05-17T08:18:13.000Z</time>
      </trkpt>
      <trkpt lat="43.98565" lon="7.3256">
        <ele>536.79998779297</ele>
        <time>2014-05-17T08:18:39.000Z</time>
      </trkpt>
      <trkpt lat="43.98572" lon="7.32584">
        <ele>538.79998779297</ele>
        <time>2014-05-17T08:19:06.000Z</time>
      </trkpt>
      <trkpt lat="43.98572" lon="7.32609">
        <ele>539.59997558594</ele>
        <time>2014-05-17T08:19:28.000Z</time>
      </trkpt>
      <trkpt lat="43.98574" lon="7.3263">
        <ele>540.20001220703</ele>
        <time>2014-05-17T08:19:54.000Z</time>
      </trkpt>
      <trkpt lat="43.98575" lon="7.3263">
        <ele>540</ele>
        <time>2014-05-17T08:19:55.000Z</time>
      </trkpt>
      <trkpt lat="43.98593" lon="7.32627">
        <ele>537</ele>
        <time>2014-05-17T08:20:17.000Z</time>
      </trkpt>
      <trkpt lat="43.98602" lon="7.32611">
        <ele>535</ele>
        <time>2014-05-17T08:20:58.000Z</time>
      </trkpt>
      <trkpt lat="43.98606" lon="7.32586">
        <ele>533.40002441406</ele>
        <time>2014-05-17T08:21:27.000Z</time>
      </trkpt>
      <trkpt lat="43.98619" lon="7.32569">
        <ele>537.40002441406</ele>
        <time>2014-05-17T08:21:55.000Z</time>
      </trkpt>
      <trkpt lat="43.98633" lon="7.32553">
        <ele>543.40002441406</ele>
        <time>2014-05-17T08:22:26.000Z</time>
      </trkpt>
      <trkpt lat="43.98646" lon="7.32535">
        <ele>548.59997558594</ele>
        <time>2014-05-17T08:22:55.000Z</time>
      </trkpt>
      <trkpt lat="43.98653" lon="7.32512">
        <ele>554.20001220703</ele>
        <time>2014-05-17T08:23:20.000Z</time>
      </trkpt>
      <trkpt lat="43.98657" lon="7.32488">
        <ele>559</ele>
        <time>2014-05-17T08:23:49.000Z</time>
      </trkpt>
      <trkpt lat="43.98656" lon="7.32474">
        <ele>562</ele>
        <time>2014-05-17T08:24:12.000Z</time>
      </trkpt>
      <trkpt lat="43.98663" lon="7.32457">
        <ele>569.20001220703</ele>
        <time>2014-05-17T08:25:28.000Z</time>
      </trkpt>
      <trkpt lat="43.9867" lon="7.32464">
        <ele>570.79998779297</ele>
        <time>2014-05-17T08:26:17.000Z</time>
      </trkpt>
      <trkpt lat="43.98679" lon="7.32484">
        <ele>571</ele>
        <time>2014-05-17T08:27:20.000Z</time>
      </trkpt>
      <trkpt lat="43.98682" lon="7.32488">
        <ele>571.79998779297</ele>
        <time>2014-05-17T08:27:29.000Z</time>
      </trkpt>
      <trkpt lat="43.98685" lon="7.32513">
        <ele>570.40002441406</ele>
        <time>2014-05-17T08:27:56.000Z</time>
      </trkpt>
      <trkpt lat="43.98685" lon="7.32515">
        <ele>570.20001220703</ele>
        <time>2014-05-17T08:27:57.000Z</time>
      </trkpt>
      <trkpt lat="43.9869" lon="7.32539">
        <ele>571.20001220703</ele>
        <time>2014-05-17T08:28:15.000Z</time>
      </trkpt>
      <trkpt lat="43.98682" lon="7.32562">
        <ele>565.59997558594</ele>
        <time>2014-05-17T08:28:39.000Z</time>
      </trkpt>
      <trkpt lat="43.98696" lon="7.32577">
        <ele>571</ele>
        <time>2014-05-17T08:29:10.000Z</time>
      </trkpt>
      <trkpt lat="43.98713" lon="7.3258">
        <ele>577.79998779297</ele>
        <time>2014-05-17T08:29:43.000Z</time>
      </trkpt>
      <trkpt lat="43.98732" lon="7.32584">
        <ele>584.79998779297</ele>
        <time>2014-05-17T08:30:19.000Z</time>
      </trkpt>
      <trkpt lat="43.98746" lon="7.32599">
        <ele>589.59997558594</ele>
        <time>2014-05-17T08:30:45.000Z</time>
      </trkpt>
      <trkpt lat="43.98761" lon="7.32614">
        <ele>594.40002441406</ele>
        <time>2014-05-17T08:31:07.000Z</time>
      </trkpt>
      <trkpt lat="43.98764" lon="7.32629">
        <ele>594.79998779297</ele>
        <time>2014-05-17T08:31:23.000Z</time>
      </trkpt>
      <trkpt lat="43.98777" lon="7.32647">
        <ele>598.40002441406</ele>
        <time>2014-05-17T08:31:45.000Z</time>
      </trkpt>
      <trkpt lat="43.98793" lon="7.32656">
        <ele>602</ele>
        <time>2014-05-17T08:32:06.000Z</time>
      </trkpt>
      <trkpt lat="43.98809" lon="7.32671">
        <ele>605.20001220703</ele>
        <time>2014-05-17T08:32:26.000Z</time>
      </trkpt>
      <trkpt lat="43.98823" lon="7.32686">
        <ele>608.40002441406</ele>
        <time>2014-05-17T08:32:44.000Z</time>
      </trkpt>
      <trkpt lat="43.98837" lon="7.32703">
        <ele>611.40002441406</ele>
        <time>2014-05-17T08:33:04.000Z</time>
      </trkpt>
      <trkpt lat="43.98854" lon="7.32712">
        <ele>615.40002441406</ele>
        <time>2014-05-17T08:33:23.000Z</time>
      </trkpt>
      <trkpt lat="43.98872" lon="7.3272">
        <ele>618.20001220703</ele>
        <time>2014-05-17T08:33:43.000Z</time>
      </trkpt>
      <trkpt lat="43.98889" lon="7.32724">
        <ele>620.79998779297</ele>
        <time>2014-05-17T08:34:05.000Z</time>
      </trkpt>
      <trkpt lat="43.98906" lon="7.32735">
        <ele>623</ele>
        <time>2014-05-17T08:34:27.000Z</time>
      </trkpt>
      <trkpt lat="43.98914" lon="7.32746">
        <ele>624</ele>
        <time>2014-05-17T08:36:08.000Z</time>
      </trkpt>
      <trkpt lat="43.98918" lon="7.3275">
        <ele>624.79998779297</ele>
        <time>2014-05-17T08:36:47.000Z</time>
      </trkpt>
      <trkpt lat="43.98924" lon="7.32773">
        <ele>628</ele>
        <time>2014-05-17T08:37:09.000Z</time>
      </trkpt>
      <trkpt lat="43.98932" lon="7.32796">
        <ele>631.40002441406</ele>
        <time>2014-05-17T08:37:30.000Z</time>
      </trkpt>
      <trkpt lat="43.98945" lon="7.32814">
        <ele>634.40002441406</ele>
        <time>2014-05-17T08:37:53.000Z</time>
      </trkpt>
      <trkpt lat="43.98956" lon="7.32829">
        <ele>635.79998779297</ele>
        <time>2014-05-17T08:38:53.000Z</time>
      </trkpt>
      <trkpt lat="43.98952" lon="7.3284">
        <ele>638.59997558594</ele>
        <time>2014-05-17T08:39:14.000Z</time>
      </trkpt>
      <trkpt lat="43.98954" lon="7.32865">
        <ele>642.59997558594</ele>
        <time>2014-05-17T08:39:37.000Z</time>
      </trkpt>
      <trkpt lat="43.98971" lon="7.32875">
        <ele>646</ele>
        <time>2014-05-17T08:40:06.000Z</time>
      </trkpt>
      <trkpt lat="43.98986" lon="7.32888">
        <ele>649.59997558594</ele>
        <time>2014-05-17T08:40:31.000Z</time>
      </trkpt>
      <trkpt lat="43.98996" lon="7.32909">
        <ele>654</ele>
        <time>2014-05-17T08:41:01.000Z</time>
      </trkpt>
      <trkpt lat="43.98999" lon="7.32919">
        <ele>656.20001220703</ele>
        <time>2014-05-17T08:41:32.000Z</time>
      </trkpt>
      <trkpt lat="43.98991" lon="7.32918">
        <ele>655</ele>
        <time>2014-05-17T08:42:00.000Z</time>
      </trkpt>
      <trkpt lat="43.99003" lon="7.32938">
        <ele>661.79998779297</ele>
        <time>2014-05-17T08:42:31.000Z</time>
      </trkpt>
      <trkpt lat="43.98987" lon="7.32942">
        <ele>661</ele>
        <time>2014-05-17T08:43:00.000Z</time>
      </trkpt>
      <trkpt lat="43.98971" lon="7.32947">
        <ele>659.79998779297</ele>
        <time>2014-05-17T08:43:28.000Z</time>
      </trkpt>
      <trkpt lat="43.98965" lon="7.32963">
        <ele>660.20001220703</ele>
        <time>2014-05-17T08:44:04.000Z</time>
      </trkpt>
      <trkpt lat="43.98953" lon="7.32976">
        <ele>658.59997558594</ele>
        <time>2014-05-17T08:44:42.000Z</time>
      </trkpt>
      <trkpt lat="43.98944" lon="7.32996">
        <ele>658.40002441406</ele>
        <time>2014-05-17T08:45:20.000Z</time>
      </trkpt>
      <trkpt lat="43.98942" lon="7.33021">
        <ele>660.59997558594</ele>
        <time>2014-05-17T08:45:40.000Z</time>
      </trkpt>
      <trkpt lat="43.98943" lon="7.33032">
        <ele>661.79998779297</ele>
        <time>2014-05-17T08:45:47.000Z</time>
      </trkpt>
      <trkpt lat="43.98943" lon="7.33051">
        <ele>663.59997558594</ele>
        <time>2014-05-17T08:46:05.000Z</time>
      </trkpt>
      <trkpt lat="43.98944" lon="7.33061">
        <ele>665</ele>
        <time>2014-05-17T08:47:05.000Z</time>
      </trkpt>
      <trkpt lat="43.98946" lon="7.3306">
        <ele>665.59997558594</ele>
        <time>2014-05-17T08:47:07.000Z</time>
      </trkpt>
      <trkpt lat="43.98952" lon="7.33057">
        <ele>667</ele>
        <time>2014-05-17T08:47:15.000Z</time>
      </trkpt>
      <trkpt lat="43.98961" lon="7.33056">
        <ele>670.20001220703</ele>
        <time>2014-05-17T08:47:26.000Z</time>
      </trkpt>
      <trkpt lat="43.98969" lon="7.33049">
        <ele>672.20001220703</ele>
        <time>2014-05-17T08:48:10.000Z</time>
      </trkpt>
      <trkpt lat="43.98975" lon="7.33046">
        <ele>674</ele>
        <time>2014-05-17T08:48:20.000Z</time>
      </trkpt>
      <trkpt lat="43.98978" lon="7.33065">
        <ele>676.79998779297</ele>
        <time>2014-05-17T08:49:01.000Z</time>
      </trkpt>
      <trkpt lat="43.98976" lon="7.33065">
        <ele>676.20001220703</ele>
        <time>2014-05-17T08:49:03.000Z</time>
      </trkpt>
      <trkpt lat="43.98975" lon="7.33064">
        <ele>675.59997558594</ele>
        <time>2014-05-17T08:49:05.000Z</time>
      </trkpt>
      <trkpt lat="43.98966" lon="7.33052">
        <ele>671.40002441406</ele>
        <time>2014-05-17T08:49:21.000Z</time>
      </trkpt>
      <trkpt lat="43.98958" lon="7.33058">
        <ele>669.40002441406</ele>
        <time>2014-05-17T08:49:31.000Z</time>
      </trkpt>
      <trkpt lat="43.98955" lon="7.33056">
        <ele>668.20001220703</ele>
        <time>2014-05-17T08:49:34.000Z</time>
      </trkpt>
      <trkpt lat="43.9895" lon="7.33053">
        <ele>666.20001220703</ele>
        <time>2014-05-17T08:49:42.000Z</time>
      </trkpt>
      <trkpt lat="43.9894" lon="7.33063">
        <ele>663.59997558594</ele>
        <time>2014-05-17T08:49:53.000Z</time>
      </trkpt>
      <trkpt lat="43.98939" lon="7.33076">
        <ele>664.40002441406</ele>
        <time>2014-05-17T08:50:01.000Z</time>
      </trkpt>
      <trkpt lat="43.98939" lon="7.33081">
        <ele>664.59997558594</ele>
        <time>2014-05-17T08:50:05.000Z</time>
      </trkpt>
      <trkpt lat="43.98941" lon="7.33106">
        <ele>665.20001220703</ele>
        <time>2014-05-17T08:50:25.000Z</time>
      </trkpt>
      <trkpt lat="43.98941" lon="7.33121">
        <ele>665</ele>
        <time>2014-05-17T08:50:50.000Z</time>
      </trkpt>
      <trkpt lat="43.98948" lon="7.33145">
        <ele>666.79998779297</ele>
        <time>2014-05-17T08:51:17.000Z</time>
      </trkpt>
      <trkpt lat="43.98961" lon="7.33161">
        <ele>670.59997558594</ele>
        <time>2014-05-17T08:52:12.000Z</time>
      </trkpt>
      <trkpt lat="43.98962" lon="7.33161">
        <ele>671</ele>
        <time>2014-05-17T08:52:14.000Z</time>
      </trkpt>
      <trkpt lat="43.98978" lon="7.33172">
        <ele>676.20001220703</ele>
        <time>2014-05-17T08:52:46.000Z</time>
      </trkpt>
      <trkpt lat="43.98996" lon="7.3318">
        <ele>681.79998779297</ele>
        <time>2014-05-17T08:53:03.000Z</time>
      </trkpt>
      <trkpt lat="43.99014" lon="7.33176">
        <ele>688.20001220703</ele>
        <time>2014-05-17T08:53:19.000Z</time>
      </trkpt>
      <trkpt lat="43.9903" lon="7.33182">
        <ele>692.20001220703</ele>
        <time>2014-05-17T08:53:46.000Z</time>
      </trkpt>
      <trkpt lat="43.99042" lon="7.33198">
        <ele>693.20001220703</ele>
        <time>2014-05-17T08:54:04.000Z</time>
      </trkpt>
      <trkpt lat="43.99056" lon="7.33198">
        <ele>694.79998779297</ele>
        <time>2014-05-17T08:55:13.000Z</time>
      </trkpt>
      <trkpt lat="43.99066" lon="7.33207">
        <ele>696</ele>
        <time>2014-05-17T08:55:34.000Z</time>
      </trkpt>
      <trkpt lat="43.99069" lon="7.3321">
        <ele>696.20001220703</ele>
        <time>2014-05-17T08:55:38.000Z</time>
      </trkpt>
      <trkpt lat="43.99076" lon="7.33215">
        <ele>696.79998779297</ele>
        <time>2014-05-17T08:55:46.000Z</time>
      </trkpt>
      <trkpt lat="43.99088" lon="7.33199">
        <ele>693</ele>
        <time>2014-05-17T08:56:04.000Z</time>
      </trkpt>
      <trkpt lat="43.99095" lon="7.33201">
        <ele>692.79998779297</ele>
        <time>2014-05-17T08:56:22.000Z</time>
      </trkpt>
      <trkpt lat="43.9909" lon="7.3319">
        <ele>691.20001220703</ele>
        <time>2014-05-17T08:58:07.000Z</time>
      </trkpt>
      <trkpt lat="43.99101" lon="7.3321">
        <ele>693.79998779297</ele>
        <time>2014-05-17T08:58:34.000Z</time>
      </trkpt>
      <trkpt lat="43.99113" lon="7.3323">
        <ele>695.59997558594</ele>
        <time>2014-05-17T08:58:53.000Z</time>
      </trkpt>
      <trkpt lat="43.99123" lon="7.33252">
        <ele>697.20001220703</ele>
        <time>2014-05-17T08:59:13.000Z</time>
      </trkpt>
      <trkpt lat="43.99135" lon="7.33272">
        <ele>699.40002441406</ele>
        <time>2014-05-17T08:59:32.000Z</time>
      </trkpt>
      <trkpt lat="43.99144" lon="7.33295">
        <ele>701.59997558594</ele>
        <time>2014-05-17T08:59:51.000Z</time>
      </trkpt>
      <trkpt lat="43.99144" lon="7.33295">
        <ele>701.59997558594</ele>
        <time>2014-05-17T08:59:52.000Z</time>
      </trkpt>
      <trkpt lat="43.99157" lon="7.33313">
        <ele>702.20001220703</ele>
        <time>2014-05-17T09:00:09.000Z</time>
      </trkpt>
      <trkpt lat="43.99169" lon="7.33332">
        <ele>703.59997558594</ele>
        <time>2014-05-17T09:00:25.000Z</time>
      </trkpt>
      <trkpt lat="43.99174" lon="7.33338">
        <ele>705</ele>
        <time>2014-05-17T09:00:31.000Z</time>
      </trkpt>
      <trkpt lat="43.99178" lon="7.33342">
        <ele>705.59997558594</ele>
        <time>2014-05-17T09:00:36.000Z</time>
      </trkpt>
      <trkpt lat="43.99179" lon="7.33343">
        <ele>705.79998779297</ele>
        <time>2014-05-17T09:00:38.000Z</time>
      </trkpt>
      <trkpt lat="43.99184" lon="7.33344">
        <ele>705.20001220703</ele>
        <time>2014-05-17T09:00:43.000Z</time>
      </trkpt>
      <trkpt lat="43.99203" lon="7.33346">
        <ele>702</ele>
        <time>2014-05-17T09:01:01.000Z</time>
      </trkpt>
      <trkpt lat="43.99221" lon="7.33351">
        <ele>699.40002441406</ele>
        <time>2014-05-17T09:01:18.000Z</time>
      </trkpt>
      <trkpt lat="43.9924" lon="7.33351">
        <ele>695.40002441406</ele>
        <time>2014-05-17T09:01:33.000Z</time>
      </trkpt>
      <trkpt lat="43.99257" lon="7.33352">
        <ele>691.59997558594</ele>
        <time>2014-05-17T09:01:49.000Z</time>
      </trkpt>
      <trkpt lat="43.99263" lon="7.33356">
        <ele>691.79998779297</ele>
        <time>2014-05-17T09:01:55.000Z</time>
      </trkpt>
      <trkpt lat="43.99278" lon="7.3337">
        <ele>692.79998779297</ele>
        <time>2014-05-17T09:02:11.000Z</time>
      </trkpt>
      <trkpt lat="43.99286" lon="7.33383">
        <ele>693.59997558594</ele>
        <time>2014-05-17T09:02:21.000Z</time>
      </trkpt>
      <trkpt lat="43.99289" lon="7.33388">
        <ele>694</ele>
        <time>2014-05-17T09:02:26.000Z</time>
      </trkpt>
      <trkpt lat="43.99294" lon="7.33399">
        <ele>695.59997558594</ele>
        <time>2014-05-17T09:02:34.000Z</time>
      </trkpt>
      <trkpt lat="43.99306" lon="7.33418">
        <ele>696.59997558594</ele>
        <time>2014-05-17T09:02:56.000Z</time>
      </trkpt>
      <trkpt lat="43.99319" lon="7.33436">
        <ele>694.79998779297</ele>
        <time>2014-05-17T09:03:14.000Z</time>
      </trkpt>
      <trkpt lat="43.99333" lon="7.33451">
        <ele>691.79998779297</ele>
        <time>2014-05-17T09:03:29.000Z</time>
      </trkpt>
      <trkpt lat="43.99347" lon="7.33467">
        <ele>689.20001220703</ele>
        <time>2014-05-17T09:03:48.000Z</time>
      </trkpt>
      <trkpt lat="43.99355" lon="7.33477">
        <ele>687.59997558594</ele>
        <time>2014-05-17T09:03:59.000Z</time>
      </trkpt>
      <trkpt lat="43.99359" lon="7.3348">
        <ele>686.79998779297</ele>
        <time>2014-05-17T09:04:03.000Z</time>
      </trkpt>
      <trkpt lat="43.99362" lon="7.33483">
        <ele>686</ele>
        <time>2014-05-17T09:04:07.000Z</time>
      </trkpt>
      <trkpt lat="43.99369" lon="7.33492">
        <ele>684.59997558594</ele>
        <time>2014-05-17T09:04:16.000Z</time>
      </trkpt>
      <trkpt lat="43.99379" lon="7.33513">
        <ele>684.20001220703</ele>
        <time>2014-05-17T09:04:36.000Z</time>
      </trkpt>
      <trkpt lat="43.9938" lon="7.33511">
        <ele>683.20001220703</ele>
        <time>2014-05-17T09:04:39.000Z</time>
      </trkpt>
      <trkpt lat="43.99395" lon="7.33493">
        <ele>672.79998779297</ele>
        <time>2014-05-17T09:04:59.000Z</time>
      </trkpt>
      <trkpt lat="43.99396" lon="7.33493">
        <ele>672.20001220703</ele>
        <time>2014-05-17T09:05:00.000Z</time>
      </trkpt>
      <trkpt lat="43.99398" lon="7.33514">
        <ele>675.40002441406</ele>
        <time>2014-05-17T09:05:30.000Z</time>
      </trkpt>
      <trkpt lat="43.99407" lon="7.33516">
        <ele>671.59997558594</ele>
        <time>2014-05-17T09:06:01.000Z</time>
      </trkpt>
      <trkpt lat="43.99424" lon="7.33522">
        <ele>664.40002441406</ele>
        <time>2014-05-17T09:06:29.000Z</time>
      </trkpt>
      <trkpt lat="43.99439" lon="7.33537">
        <ele>660.20001220703</ele>
        <time>2014-05-17T09:06:45.000Z</time>
      </trkpt>
      <trkpt lat="43.99452" lon="7.33554">
        <ele>657.79998779297</ele>
        <time>2014-05-17T09:07:01.000Z</time>
      </trkpt>
      <trkpt lat="43.99463" lon="7.33575">
        <ele>657.59997558594</ele>
        <time>2014-05-17T09:07:18.000Z</time>
      </trkpt>
      <trkpt lat="43.9948" lon="7.33579">
        <ele>651.59997558594</ele>
        <time>2014-05-17T09:07:41.000Z</time>
      </trkpt>
      <trkpt lat="43.99484" lon="7.33578">
        <ele>649.59997558594</ele>
        <time>2014-05-17T09:07:52.000Z</time>
      </trkpt>
      <trkpt lat="43.99501" lon="7.33583">
        <ele>644</ele>
        <time>2014-05-17T09:08:19.000Z</time>
      </trkpt>
      <trkpt lat="43.99519" lon="7.33586">
        <ele>637.59997558594</ele>
        <time>2014-05-17T09:08:36.000Z</time>
      </trkpt>
      <trkpt lat="43.99537" lon="7.3359">
        <ele>631.20001220703</ele>
        <time>2014-05-17T09:08:55.000Z</time>
      </trkpt>
      <trkpt lat="43.99551" lon="7.33605">
        <ele>628.59997558594</ele>
        <time>2014-05-17T09:09:11.000Z</time>
      </trkpt>
      <trkpt lat="43.99565" lon="7.33619">
        <ele>625.59997558594</ele>
        <time>2014-05-17T09:09:28.000Z</time>
      </trkpt>
      <trkpt lat="43.9958" lon="7.3363">
        <ele>621.59997558594</ele>
        <time>2014-05-17T09:09:47.000Z</time>
      </trkpt>
      <trkpt lat="43.99588" lon="7.33651">
        <ele>623.20001220703</ele>
        <time>2014-05-17T09:10:08.000Z</time>
      </trkpt>
      <trkpt lat="43.99589" lon="7.33677">
        <ele>626.59997558594</ele>
        <time>2014-05-17T09:10:28.000Z</time>
      </trkpt>
      <trkpt lat="43.9959" lon="7.3368">
        <ele>626.20001220703</ele>
        <time>2014-05-17T09:10:30.000Z</time>
      </trkpt>
      <trkpt lat="43.99588" lon="7.33706">
        <ele>628.40002441406</ele>
        <time>2014-05-17T09:10:49.000Z</time>
      </trkpt>
      <trkpt lat="43.996" lon="7.33723">
        <ele>623.59997558594</ele>
        <time>2014-05-17T09:11:10.000Z</time>
      </trkpt>
      <trkpt lat="43.99601" lon="7.33749">
        <ele>625.20001220703</ele>
        <time>2014-05-17T09:11:29.000Z</time>
      </trkpt>
      <trkpt lat="43.996" lon="7.33774">
        <ele>626</ele>
        <time>2014-05-17T09:11:49.000Z</time>
      </trkpt>
      <trkpt lat="43.996" lon="7.33777">
        <ele>625.79998779297</ele>
        <time>2014-05-17T09:11:55.000Z</time>
      </trkpt>
      <trkpt lat="43.99613" lon="7.33793">
        <ele>618.79998779297</ele>
        <time>2014-05-17T09:12:18.000Z</time>
      </trkpt>
      <trkpt lat="43.99625" lon="7.33811">
        <ele>611.79998779297</ele>
        <time>2014-05-17T09:12:41.000Z</time>
      </trkpt>
      <trkpt lat="43.99641" lon="7.33825">
        <ele>603.59997558594</ele>
        <time>2014-05-17T09:12:59.000Z</time>
      </trkpt>
      <trkpt lat="43.99653" lon="7.33843">
        <ele>600.20001220703</ele>
        <time>2014-05-17T09:13:17.000Z</time>
      </trkpt>
      <trkpt lat="43.99657" lon="7.33867">
        <ele>604</ele>
        <time>2014-05-17T09:13:36.000Z</time>
      </trkpt>
      <trkpt lat="43.99657" lon="7.33869">
        <ele>604.59997558594</ele>
        <time>2014-05-17T09:13:37.000Z</time>
      </trkpt>
      <trkpt lat="43.99658" lon="7.33879">
        <ele>606.40002441406</ele>
        <time>2014-05-17T09:13:47.000Z</time>
      </trkpt>
      <trkpt lat="43.99663" lon="7.33882">
        <ele>604.40002441406</ele>
        <time>2014-05-17T09:13:51.000Z</time>
      </trkpt>
      <trkpt lat="43.99678" lon="7.33896">
        <ele>599.59997558594</ele>
        <time>2014-05-17T09:14:10.000Z</time>
      </trkpt>
      <trkpt lat="43.99697" lon="7.33903">
        <ele>593.79998779297</ele>
        <time>2014-05-17T09:14:26.000Z</time>
      </trkpt>
      <trkpt lat="43.99715" lon="7.33904">
        <ele>592.59997558594</ele>
        <time>2014-05-17T09:14:42.000Z</time>
      </trkpt>
      <trkpt lat="43.99731" lon="7.33895">
        <ele>588.79998779297</ele>
        <time>2014-05-17T09:15:00.000Z</time>
      </trkpt>
      <trkpt lat="43.9975" lon="7.33887">
        <ele>585.40002441406</ele>
        <time>2014-05-17T09:15:18.000Z</time>
      </trkpt>
      <trkpt lat="43.99762" lon="7.33867">
        <ele>581.40002441406</ele>
        <time>2014-05-17T09:15:43.000Z</time>
      </trkpt>
      <trkpt lat="43.99764" lon="7.33873">
        <ele>582.40002441406</ele>
        <time>2014-05-17T09:17:22.000Z</time>
      </trkpt>
      <trkpt lat="43.99765" lon="7.33869">
        <ele>581.59997558594</ele>
        <time>2014-05-17T09:17:51.000Z</time>
      </trkpt>
      <trkpt lat="43.99763" lon="7.33845">
        <ele>577</ele>
        <time>2014-05-17T09:18:16.000Z</time>
      </trkpt>
      <trkpt lat="43.99758" lon="7.33821">
        <ele>573.59997558594</ele>
        <time>2014-05-17T09:18:37.000Z</time>
      </trkpt>
      <trkpt lat="43.99752" lon="7.33797">
        <ele>572.79998779297</ele>
        <time>2014-05-17T09:18:58.000Z</time>
      </trkpt>
      <trkpt lat="43.99755" lon="7.33772">
        <ele>572.59997558594</ele>
        <time>2014-05-17T09:19:16.000Z</time>
      </trkpt>
      <trkpt lat="43.99758" lon="7.33747">
        <ele>572.40002441406</ele>
        <time>2014-05-17T09:19:34.000Z</time>
      </trkpt>
      <trkpt lat="43.99761" lon="7.33723">
        <ele>571.20001220703</ele>
        <time>2014-05-17T09:19:56.000Z</time>
      </trkpt>
      <trkpt lat="43.99768" lon="7.337">
        <ele>571.20001220703</ele>
        <time>2014-05-17T09:20:22.000Z</time>
      </trkpt>
      <trkpt lat="43.99773" lon="7.33678">
        <ele>571.20001220703</ele>
        <time>2014-05-17T09:20:45.000Z</time>
      </trkpt>
      <trkpt lat="43.99782" lon="7.33655">
        <ele>575</ele>
        <time>2014-05-17T09:21:10.000Z</time>
      </trkpt>
      <trkpt lat="43.99778" lon="7.3363">
        <ele>573.20001220703</ele>
        <time>2014-05-17T09:21:27.000Z</time>
      </trkpt>
      <trkpt lat="43.99772" lon="7.33606">
        <ele>571.79998779297</ele>
        <time>2014-05-17T09:21:45.000Z</time>
      </trkpt>
      <trkpt lat="43.9977" lon="7.33581">
        <ele>571.79998779297</ele>
        <time>2014-05-17T09:22:05.000Z</time>
      </trkpt>
      <trkpt lat="43.99777" lon="7.33561">
        <ele>574.79998779297</ele>
        <time>2014-05-17T09:22:26.000Z</time>
      </trkpt>
      <trkpt lat="43.99778" lon="7.33536">
        <ele>576.79998779297</ele>
        <time>2014-05-17T09:22:46.000Z</time>
      </trkpt>
      <trkpt lat="43.99788" lon="7.33515">
        <ele>582.40002441406</ele>
        <time>2014-05-17T09:23:09.000Z</time>
      </trkpt>
      <trkpt lat="43.99789" lon="7.33514">
        <ele>583</ele>
        <time>2014-05-17T09:23:10.000Z</time>
      </trkpt>
      <trkpt lat="43.99806" lon="7.33507">
        <ele>590.59997558594</ele>
        <time>2014-05-17T09:23:34.000Z</time>
      </trkpt>
      <trkpt lat="43.99823" lon="7.33501">
        <ele>598</ele>
        <time>2014-05-17T09:24:04.000Z</time>
      </trkpt>
      <trkpt lat="43.99835" lon="7.3349">
        <ele>603.20001220703</ele>
        <time>2014-05-17T09:24:57.000Z</time>
      </trkpt>
      <trkpt lat="43.99843" lon="7.33468">
        <ele>607.40002441406</ele>
        <time>2014-05-17T09:25:21.000Z</time>
      </trkpt>
      <trkpt lat="43.99853" lon="7.33447">
        <ele>612.59997558594</ele>
        <time>2014-05-17T09:25:46.000Z</time>
      </trkpt>
      <trkpt lat="43.99856" lon="7.33423">
        <ele>614.40002441406</ele>
        <time>2014-05-17T09:26:10.000Z</time>
      </trkpt>
      <trkpt lat="43.99859" lon="7.33398">
        <ele>617.79998779297</ele>
        <time>2014-05-17T09:26:36.000Z</time>
      </trkpt>
      <trkpt lat="43.99863" lon="7.33374">
        <ele>621.59997558594</ele>
        <time>2014-05-17T09:27:03.000Z</time>
      </trkpt>
      <trkpt lat="43.99867" lon="7.33349">
        <ele>625.59997558594</ele>
        <time>2014-05-17T09:27:26.000Z</time>
      </trkpt>
      <trkpt lat="43.99867" lon="7.33332">
        <ele>626.79998779297</ele>
        <time>2014-05-17T09:29:19.000Z</time>
      </trkpt>
      <trkpt lat="43.99873" lon="7.33319">
        <ele>629.79998779297</ele>
        <time>2014-05-17T09:31:37.000Z</time>
      </trkpt>
      <trkpt lat="43.99884" lon="7.33301">
        <ele>635.59997558594</ele>
        <time>2014-05-17T09:31:59.000Z</time>
      </trkpt>
      <trkpt lat="43.99899" lon="7.33298">
        <ele>642.20001220703</ele>
        <time>2014-05-17T09:32:26.000Z</time>
      </trkpt>
      <trkpt lat="43.99901" lon="7.33297">
        <ele>642.79998779297</ele>
        <time>2014-05-17T09:32:27.000Z</time>
      </trkpt>
      <trkpt lat="43.99916" lon="7.33292">
        <ele>649.40002441406</ele>
        <time>2014-05-17T09:32:55.000Z</time>
      </trkpt>
      <trkpt lat="43.9993" lon="7.33294">
        <ele>655.20001220703</ele>
        <time>2014-05-17T09:33:25.000Z</time>
      </trkpt>
      <trkpt lat="43.99937" lon="7.33274">
        <ele>658.40002441406</ele>
        <time>2014-05-17T09:33:49.000Z</time>
      </trkpt>
      <trkpt lat="43.99932" lon="7.33254">
        <ele>657</ele>
        <time>2014-05-17T09:34:16.000Z</time>
      </trkpt>
      <trkpt lat="43.99931" lon="7.33229">
        <ele>656.20001220703</ele>
        <time>2014-05-17T09:34:43.000Z</time>
      </trkpt>
      <trkpt lat="43.99937" lon="7.33206">
        <ele>658.59997558594</ele>
        <time>2014-05-17T09:35:03.000Z</time>
      </trkpt>
      <trkpt lat="43.99945" lon="7.33184">
        <ele>662</ele>
        <time>2014-05-17T09:35:26.000Z</time>
      </trkpt>
      <trkpt lat="43.99958" lon="7.33166">
        <ele>668</ele>
        <time>2014-05-17T09:35:52.000Z</time>
      </trkpt>
      <trkpt lat="43.99964" lon="7.33143">
        <ele>672.79998779297</ele>
        <time>2014-05-17T09:36:15.000Z</time>
      </trkpt>
      <trkpt lat="43.99975" lon="7.33122">
        <ele>679.79998779297</ele>
        <time>2014-05-17T09:36:36.000Z</time>
      </trkpt>
      <trkpt lat="43.99986" lon="7.33101">
        <ele>685</ele>
        <time>2014-05-17T09:36:55.000Z</time>
      </trkpt>
      <trkpt lat="43.99985" lon="7.33099">
        <ele>684.79998779297</ele>
        <time>2014-05-17T09:36:56.000Z</time>
      </trkpt>
      <trkpt lat="43.99978" lon="7.33077">
        <ele>682.59997558594</ele>
        <time>2014-05-17T09:37:22.000Z</time>
      </trkpt>
      <trkpt lat="43.99977" lon="7.33064">
        <ele>686.59997558594</ele>
        <time>2014-05-17T09:37:35.000Z</time>
      </trkpt>
      <trkpt lat="43.99982" lon="7.33052">
        <ele>692.40002441406</ele>
        <time>2014-05-17T09:38:45.000Z</time>
      </trkpt>
      <trkpt lat="43.9999" lon="7.3303">
        <ele>699.59997558594</ele>
        <time>2014-05-17T09:39:13.000Z</time>
      </trkpt>
      <trkpt lat="43.99993" lon="7.33005">
        <ele>702.79998779297</ele>
        <time>2014-05-17T09:39:38.000Z</time>
      </trkpt>
      <trkpt lat="43.99986" lon="7.32982">
        <ele>706.59997558594</ele>
        <time>2014-05-17T09:39:58.000Z</time>
      </trkpt>
      <trkpt lat="43.99982" lon="7.32975">
        <ele>707.59997558594</ele>
        <time>2014-05-17T09:40:04.000Z</time>
      </trkpt>
      <trkpt lat="43.99975" lon="7.32964">
        <ele>709.59997558594</ele>
        <time>2014-05-17T09:40:14.000Z</time>
      </trkpt>
      <trkpt lat="43.99972" lon="7.3296">
        <ele>710.20001220703</ele>
        <time>2014-05-17T09:40:19.000Z</time>
      </trkpt>
      <trkpt lat="43.99969" lon="7.32955">
        <ele>710.79998779297</ele>
        <time>2014-05-17T09:40:24.000Z</time>
      </trkpt>
      <trkpt lat="43.99963" lon="7.32951">
        <ele>710.59997558594</ele>
        <time>2014-05-17T09:40:31.000Z</time>
      </trkpt>
      <trkpt lat="43.99953" lon="7.32944">
        <ele>710.59997558594</ele>
        <time>2014-05-17T09:41:07.000Z</time>
      </trkpt>
      <trkpt lat="43.99955" lon="7.32942">
        <ele>711.59997558594</ele>
        <time>2014-05-17T09:41:15.000Z</time>
      </trkpt>
      <trkpt lat="43.99959" lon="7.32938">
        <ele>713.59997558594</ele>
        <time>2014-05-17T09:41:22.000Z</time>
      </trkpt>
      <trkpt lat="43.99946" lon="7.32937">
        <ele>711</ele>
        <time>2014-05-17T09:43:08.000Z</time>
      </trkpt>
      <trkpt lat="43.99932" lon="7.32924">
        <ele>711.40002441406</ele>
        <time>2014-05-17T09:43:33.000Z</time>
      </trkpt>
      <trkpt lat="43.99925" lon="7.32901">
        <ele>715.59997558594</ele>
        <time>2014-05-17T09:43:58.000Z</time>
      </trkpt>
      <trkpt lat="43.99925" lon="7.32898">
        <ele>716.59997558594</ele>
        <time>2014-05-17T09:44:01.000Z</time>
      </trkpt>
      <trkpt lat="43.99928" lon="7.32896">
        <ele>717.59997558594</ele>
        <time>2014-05-17T09:44:05.000Z</time>
      </trkpt>
      <trkpt lat="43.99946" lon="7.32898">
        <ele>720.79998779297</ele>
        <time>2014-05-17T09:44:26.000Z</time>
      </trkpt>
      <trkpt lat="43.99952" lon="7.32893">
        <ele>722.40002441406</ele>
        <time>2014-05-17T09:44:38.000Z</time>
      </trkpt>
      <trkpt lat="43.99956" lon="7.32883">
        <ele>725</ele>
        <time>2014-05-17T09:44:49.000Z</time>
      </trkpt>
      <trkpt lat="43.9996" lon="7.32859">
        <ele>730.40002441406</ele>
        <time>2014-05-17T09:45:20.000Z</time>
      </trkpt>
      <trkpt lat="43.9996" lon="7.32834">
        <ele>736.20001220703</ele>
        <time>2014-05-17T09:45:50.000Z</time>
      </trkpt>
      <trkpt lat="43.99969" lon="7.32812">
        <ele>739.59997558594</ele>
        <time>2014-05-17T09:46:16.000Z</time>
      </trkpt>
      <trkpt lat="43.99965" lon="7.32787">
        <ele>742</ele>
        <time>2014-05-17T09:46:41.000Z</time>
      </trkpt>
      <trkpt lat="43.99963" lon="7.32762">
        <ele>744.79998779297</ele>
        <time>2014-05-17T09:47:02.000Z</time>
      </trkpt>
      <trkpt lat="43.99962" lon="7.32737">
        <ele>747</ele>
        <time>2014-05-17T09:47:20.000Z</time>
      </trkpt>
      <trkpt lat="43.99961" lon="7.32711">
        <ele>747.20001220703</ele>
        <time>2014-05-17T09:47:42.000Z</time>
      </trkpt>
      <trkpt lat="43.99962" lon="7.32685">
        <ele>747.59997558594</ele>
        <time>2014-05-17T09:48:01.000Z</time>
      </trkpt>
      <trkpt lat="43.99967" lon="7.32664">
        <ele>749.59997558594</ele>
        <time>2014-05-17T09:48:19.000Z</time>
      </trkpt>
      <trkpt lat="43.9997" lon="7.32662">
        <ele>749.79998779297</ele>
        <time>2014-05-17T09:48:21.000Z</time>
      </trkpt>
      <trkpt lat="43.99969" lon="7.3266">
        <ele>749.40002441406</ele>
        <time>2014-05-17T09:48:25.000Z</time>
      </trkpt>
      <trkpt lat="43.99978" lon="7.3266">
        <ele>751</ele>
        <time>2014-05-17T09:50:15.000Z</time>
      </trkpt>
      <trkpt lat="43.99995" lon="7.3267">
        <ele>754.20001220703</ele>
        <time>2014-05-17T09:50:35.000Z</time>
      </trkpt>
      <trkpt lat="44.00009" lon="7.32677">
        <ele>756.59997558594</ele>
        <time>2014-05-17T09:51:08.000Z</time>
      </trkpt>
      <trkpt lat="44.00027" lon="7.32677">
        <ele>760</ele>
        <time>2014-05-17T09:51:32.000Z</time>
      </trkpt>
      <trkpt lat="44.00038" lon="7.32656">
        <ele>763.20001220703</ele>
        <time>2014-05-17T09:51:56.000Z</time>
      </trkpt>
      <trkpt lat="44.00056" lon="7.32653">
        <ele>768.40002441406</ele>
        <time>2014-05-17T09:52:29.000Z</time>
      </trkpt>
      <trkpt lat="44.00073" lon="7.32655">
        <ele>774</ele>
        <time>2014-05-17T09:53:00.000Z</time>
      </trkpt>
      <trkpt lat="44.00092" lon="7.32656">
        <ele>779.79998779297</ele>
        <time>2014-05-17T09:53:25.000Z</time>
      </trkpt>
      <trkpt lat="44.00108" lon="7.32665">
        <ele>786</ele>
        <time>2014-05-17T09:53:47.000Z</time>
      </trkpt>
      <trkpt lat="44.00113" lon="7.32668">
        <ele>787.20001220703</ele>
        <time>2014-05-17T09:53:55.000Z</time>
      </trkpt>
      <trkpt lat="44.0013" lon="7.32663">
        <ele>791.40002441406</ele>
        <time>2014-05-17T09:54:19.000Z</time>
      </trkpt>
      <trkpt lat="44.00145" lon="7.32678">
        <ele>795.59997558594</ele>
        <time>2014-05-17T09:54:44.000Z</time>
      </trkpt>
      <trkpt lat="44.00161" lon="7.32671">
        <ele>799.40002441406</ele>
        <time>2014-05-17T09:55:28.000Z</time>
      </trkpt>
      <trkpt lat="44.00172" lon="7.3266">
        <ele>801.59997558594</ele>
        <time>2014-05-17T09:55:49.000Z</time>
      </trkpt>
      <trkpt lat="44.00186" lon="7.32654">
        <ele>804.59997558594</ele>
        <time>2014-05-17T09:56:10.000Z</time>
      </trkpt>
      <trkpt lat="44.00185" lon="7.32665">
        <ele>805.40002441406</ele>
        <time>2014-05-17T09:58:47.000Z</time>
      </trkpt>
      <trkpt lat="44.00188" lon="7.32689">
        <ele>806.79998779297</ele>
        <time>2014-05-17T09:59:04.000Z</time>
      </trkpt>
      <trkpt lat="44.0019" lon="7.32715">
        <ele>807.79998779297</ele>
        <time>2014-05-17T09:59:23.000Z</time>
      </trkpt>
      <trkpt lat="44.00193" lon="7.32741">
        <ele>809.20001220703</ele>
        <time>2014-05-17T09:59:47.000Z</time>
      </trkpt>
      <trkpt lat="44.00197" lon="7.32766">
        <ele>808.59997558594</ele>
        <time>2014-05-17T10:00:07.000Z</time>
      </trkpt>
      <trkpt lat="44.00208" lon="7.32787">
        <ele>809.79998779297</ele>
        <time>2014-05-17T10:00:27.000Z</time>
      </trkpt>
      <trkpt lat="44.00221" lon="7.32805">
        <ele>812.40002441406</ele>
        <time>2014-05-17T10:00:45.000Z</time>
      </trkpt>
      <trkpt lat="44.00233" lon="7.32824">
        <ele>814.79998779297</ele>
        <time>2014-05-17T10:01:04.000Z</time>
      </trkpt>
      <trkpt lat="44.00244" lon="7.32845">
        <ele>816.20001220703</ele>
        <time>2014-05-17T10:01:22.000Z</time>
      </trkpt>
      <trkpt lat="44.0025" lon="7.3286">
        <ele>816.59997558594</ele>
        <time>2014-05-17T10:01:35.000Z</time>
      </trkpt>
      <trkpt lat="44.0026" lon="7.3288">
        <ele>817.59997558594</ele>
        <time>2014-05-17T10:01:58.000Z</time>
      </trkpt>
      <trkpt lat="44.00268" lon="7.32901">
        <ele>818.20001220703</ele>
        <time>2014-05-17T10:02:34.000Z</time>
      </trkpt>
      <trkpt lat="44.00277" lon="7.32923">
        <ele>818.79998779297</ele>
        <time>2014-05-17T10:02:49.000Z</time>
      </trkpt>
      <trkpt lat="44.00284" lon="7.32947">
        <ele>819.59997558594</ele>
        <time>2014-05-17T10:03:06.000Z</time>
      </trkpt>
      <trkpt lat="44.00284" lon="7.32973">
        <ele>817.40002441406</ele>
        <time>2014-05-17T10:03:26.000Z</time>
      </trkpt>
      <trkpt lat="44.00287" lon="7.32998">
        <ele>816.20001220703</ele>
        <time>2014-05-17T10:03:45.000Z</time>
      </trkpt>
      <trkpt lat="44.00291" lon="7.33023">
        <ele>818.59997558594</ele>
        <time>2014-05-17T10:04:04.000Z</time>
      </trkpt>
      <trkpt lat="44.00292" lon="7.33049">
        <ele>818.79998779297</ele>
        <time>2014-05-17T10:04:22.000Z</time>
      </trkpt>
      <trkpt lat="44.00293" lon="7.33075">
        <ele>819</ele>
        <time>2014-05-17T10:04:41.000Z</time>
      </trkpt>
      <trkpt lat="44.00299" lon="7.33069">
        <ele>822.20001220703</ele>
        <time>2014-05-17T10:05:46.000Z</time>
      </trkpt>
      <trkpt lat="44.00302" lon="7.33044">
        <ele>823.79998779297</ele>
        <time>2014-05-17T10:06:05.000Z</time>
      </trkpt>
      <trkpt lat="44.00303" lon="7.33018">
        <ele>824</ele>
        <time>2014-05-17T10:06:22.000Z</time>
      </trkpt>
      <trkpt lat="44.003" lon="7.32994">
        <ele>822.40002441406</ele>
        <time>2014-05-17T10:06:39.000Z</time>
      </trkpt>
      <trkpt lat="44.00302" lon="7.3297">
        <ele>825.40002441406</ele>
        <time>2014-05-17T10:06:55.000Z</time>
      </trkpt>
      <trkpt lat="44.00302" lon="7.32945">
        <ele>827.79998779297</ele>
        <time>2014-05-17T10:07:13.000Z</time>
      </trkpt>
      <trkpt lat="44.00302" lon="7.32943">
        <ele>828.20001220703</ele>
        <time>2014-05-17T10:07:14.000Z</time>
      </trkpt>
      <trkpt lat="44.00305" lon="7.32934">
        <ele>829.79998779297</ele>
        <time>2014-05-17T10:07:20.000Z</time>
      </trkpt>
      <trkpt lat="44.00306" lon="7.3293">
        <ele>830.40002441406</ele>
        <time>2014-05-17T10:07:23.000Z</time>
      </trkpt>
      <trkpt lat="44.00317" lon="7.32925">
        <ele>835</ele>
        <time>2014-05-17T10:07:37.000Z</time>
      </trkpt>
      <trkpt lat="44.00325" lon="7.32926">
        <ele>838</ele>
        <time>2014-05-17T10:07:49.000Z</time>
      </trkpt>
      <trkpt lat="44.00342" lon="7.32928">
        <ele>844.79998779297</ele>
        <time>2014-05-17T10:08:12.000Z</time>
      </trkpt>
      <trkpt lat="44.00356" lon="7.32932">
        <ele>850.40002441406</ele>
        <time>2014-05-17T10:08:40.000Z</time>
      </trkpt>
      <trkpt lat="44.00362" lon="7.32922">
        <ele>852</ele>
        <time>2014-05-17T10:08:51.000Z</time>
      </trkpt>
      <trkpt lat="44.00357" lon="7.32898">
        <ele>853</ele>
        <time>2014-05-17T10:09:11.000Z</time>
      </trkpt>
      <trkpt lat="44.00354" lon="7.32873">
        <ele>854.79998779297</ele>
        <time>2014-05-17T10:09:32.000Z</time>
      </trkpt>
      <trkpt lat="44.00352" lon="7.32849">
        <ele>856.79998779297</ele>
        <time>2014-05-17T10:09:52.000Z</time>
      </trkpt>
      <trkpt lat="44.00362" lon="7.32843">
        <ele>860</ele>
        <time>2014-05-17T10:10:26.000Z</time>
      </trkpt>
      <trkpt lat="44.0036" lon="7.32837">
        <ele>860.40002441406</ele>
        <time>2014-05-17T10:10:30.000Z</time>
      </trkpt>
      <trkpt lat="44.00354" lon="7.32832">
        <ele>859.40002441406</ele>
        <time>2014-05-17T10:11:40.000Z</time>
      </trkpt>
      <trkpt lat="44.00344" lon="7.32821">
        <ele>856.59997558594</ele>
        <time>2014-05-17T10:12:33.000Z</time>
      </trkpt>
      <trkpt lat="44.00344" lon="7.32816">
        <ele>856.79998779297</ele>
        <time>2014-05-17T10:12:36.000Z</time>
      </trkpt>
      <trkpt lat="44.00342" lon="7.32811">
        <ele>856.40002441406</ele>
        <time>2014-05-17T10:12:40.000Z</time>
      </trkpt>
      <trkpt lat="44.0034" lon="7.32805">
        <ele>855.79998779297</ele>
        <time>2014-05-17T10:12:45.000Z</time>
      </trkpt>
      <trkpt lat="44.00338" lon="7.328">
        <ele>855.20001220703</ele>
        <time>2014-05-17T10:12:51.000Z</time>
      </trkpt>
      <trkpt lat="44.0033" lon="7.32792">
        <ele>852.79998779297</ele>
        <time>2014-05-17T10:13:01.000Z</time>
      </trkpt>
      <trkpt lat="44.00325" lon="7.32787">
        <ele>851.59997558594</ele>
        <time>2014-05-17T10:13:06.000Z</time>
      </trkpt>
      <trkpt lat="44.00321" lon="7.32784">
        <ele>850.20001220703</ele>
        <time>2014-05-17T10:13:11.000Z</time>
      </trkpt>
      <trkpt lat="44.00321" lon="7.32783">
        <ele>850.20001220703</ele>
        <time>2014-05-17T10:14:25.000Z</time>
      </trkpt>
    </trkseg>
  </trk>
</gpx>